Time;durP1;ratioP1;P1;durP2;ratioP2;P2;SDS_P1;SDS_P2;PMS_P1;PMS_P2;Temp;Humidity;BMP_temperature;BMP_pressure;BME280_temperature;BME280_humidity;BME280_pressure;Samples;Min_cycle;Max_cycle;Signal;HPM_P1;HPM_P2
2022/04/23 00:00:21;;;;;;;28.80;15.65;;;;;;;10.27;100.00;100326.09;5203380;28;20101;-70
2022/04/23 00:02:52;;;;;;;26.80;14.32;;;;;;;10.33;100.00;100332.59;5203142;28;20021;-70
2022/04/23 00:05:23;;;;;;;28.08;14.95;;;;;;;10.34;100.00;100328.91;5202783;28;20062;-70
2022/04/23 00:07:53;;;;;;;30.25;15.68;;;;;;;10.39;100.00;100329.19;5202129;28;20513;-70
2022/04/23 00:10:24;;;;;;;30.05;15.57;;;;;;;10.41;100.00;100329.03;5201106;28;20527;-70
2022/04/23 00:12:54;;;;;;;31.42;15.90;;;;;;;10.43;100.00;100327.84;5203101;28;20372;-71
2022/04/23 00:15:25;;;;;;;28.70;15.20;;;;;;;10.47;100.00;100329.16;5203080;28;20403;-70
2022/04/23 00:17:55;;;;;;;25.92;16.10;;;;;;;10.52;100.00;100325.94;5207376;28;20025;-71
2022/04/23 00:20:29;;;;;;;27.98;16.70;;;;;;;10.58;100.00;100322.53;5207384;28;20099;-71
2022/04/23 00:23:00;;;;;;;28.83;16.27;;;;;;;10.63;100.00;100321.00;5207443;28;20025;-71
2022/04/23 00:25:31;;;;;;;30.23;15.95;;;;;;;10.66;100.00;100316.28;5205667;28;20391;-71
2022/04/23 00:28:01;;;;;;;24.85;15.40;;;;;;;10.70;100.00;100318.44;5207346;28;20041;-71
2022/04/23 00:30:33;;;;;;;27.10;15.93;;;;;;;10.71;100.00;100317.41;5206678;28;20032;-71
2022/04/23 00:33:03;;;;;;;33.53;17.40;;;;;;;10.73;100.00;100309.19;5206796;28;20022;-71
2022/04/23 00:35:34;;;;;;;31.55;16.63;;;;;;;10.77;100.00;100314.00;5207138;28;20376;-71
2022/04/23 00:38:06;;;;;;;26.40;16.05;;;;;;;10.80;100.00;100315.50;5201554;28;20105;-71
2022/04/23 00:40:39;;;;;;;29.42;16.23;;;;;;;10.83;100.00;100317.81;5206746;28;20483;-70
2022/04/23 00:43:25;;;;;;;28.90;17.42;;;;;;;10.79;100.00;100311.13;5206936;28;20079;-70
2022/04/23 00:45:57;;;;;;;32.40;16.85;;;;;;;10.81;100.00;100309.97;5205608;28;20028;-70
2022/04/23 00:48:28;;;;;;;30.17;18.02;;;;;;;10.80;100.00;100313.66;5206757;28;20032;-70
2022/04/23 00:51:00;;;;;;;30.45;17.48;;;;;;;10.81;100.00;100312.63;5206557;28;20028;-70
2022/04/23 00:53:31;;;;;;;29.85;17.48;;;;;;;10.87;100.00;100311.09;5206753;28;20036;-71
2022/04/23 00:56:02;;;;;;;29.65;18.42;;;;;;;10.86;100.00;100314.78;5205139;28;20030;-70
2022/04/23 00:58:32;;;;;;;30.17;17.30;;;;;;;10.84;100.00;100303.38;5207050;28;20108;-70
2022/04/23 01:01:03;;;;;;;35.80;18.60;;;;;;;10.81;100.00;100311.81;5206514;28;20125;-70
2022/04/23 01:03:33;;;;;;;34.17;19.88;;;;;;;10.78;100.00;100309.47;5207240;28;20025;-70
2022/04/23 01:06:06;;;;;;;32.13;18.63;;;;;;;10.80;100.00;100310.97;5206685;28;20014;-70
2022/04/23 01:08:37;;;;;;;32.60;19.20;;;;;;;10.79;100.00;100300.41;5206027;28;20017;-70
2022/04/23 01:11:08;;;;;;;36.47;17.90;;;;;;;10.79;100.00;100297.72;5206888;28;20124;-70
2022/04/23 01:13:38;;;;;;;34.42;18.80;;;;;;;10.81;100.00;100299.22;5197725;28;20455;-70
2022/04/23 01:16:10;;;;;;;33.60;18.83;;;;;;;10.84;100.00;100300.69;5206120;28;20037;-70
2022/04/23 01:18:42;;;;;;;28.35;17.35;;;;;;;10.84;100.00;100293.50;5206626;28;20505;-70
2022/04/23 01:21:13;;;;;;;30.90;19.70;;;;;;;10.83;100.00;100296.34;5206779;28;20071;-70
2022/04/23 01:23:46;;;;;;;31.60;18.92;;;;;;;10.80;100.00;100302.09;5206560;28;20032;-69
2022/04/23 01:26:34;;;;;;;30.95;18.85;;;;;;;10.80;100.00;100299.41;5206234;28;20033;-69
2022/04/23 01:29:05;;;;;;;33.42;19.55;;;;;;;10.82;100.00;100295.53;5192636;28;20031;-69
2022/04/23 01:31:35;;;;;;;34.95;18.88;;;;;;;10.81;100.00;100293.84;5206341;28;20033;-70
2022/04/23 01:34:06;;;;;;;34.20;20.35;;;;;;;10.80;100.00;100294.03;5206526;28;20111;-69
2022/04/23 01:36:37;;;;;;;34.42;19.02;;;;;;;10.80;100.00;100291.38;5205312;28;20033;-70
2022/04/23 01:39:07;;;;;;;42.40;20.38;;;;;;;10.78;100.00;100294.22;5200307;28;20130;-69
2022/04/23 01:41:38;;;;;;;36.85;20.50;;;;;;;10.74;100.00;100295.59;5206155;28;20490;-70
2022/04/23 01:44:09;;;;;;;36.33;20.65;;;;;;;10.73;100.00;100295.78;5205987;28;20017;-70
2022/04/23 01:46:39;;;;;;;37.25;20.77;;;;;;;10.75;100.00;100291.91;5206383;28;20049;-70
2022/04/23 01:49:10;;;;;;;35.55;20.73;;;;;;;10.77;100.00;100294.41;5206027;28;20060;-70
2022/04/23 01:51:50;;;;;;;37.88;19.25;;;;;;;10.78;100.00;100304.09;5193614;28;20033;-70
2022/04/23 01:54:23;;;;;;;31.20;20.02;;;;;;;10.77;100.00;100295.22;5205667;28;20501;-70
2022/04/23 01:57:10;;;;;;;35.25;20.20;;;;;;;10.75;100.00;100297.28;5206010;28;20021;-69
2022/04/23 01:59:41;;;;;;;33.45;20.40;;;;;;;10.72;100.00;100299.47;5205668;28;20030;-69
2022/04/23 02:02:11;;;;;;;37.17;21.33;;;;;;;10.67;100.00;100294.66;5205360;28;20030;-69
2022/04/23 02:04:43;;;;;;;36.50;19.92;;;;;;;10.67;100.00;100291.13;5205702;28;20029;-69
2022/04/23 02:07:14;;;;;;;38.97;21.45;;;;;;;10.66;100.00;100290.31;5205740;28;20025;-69
2022/04/23 02:09:44;;;;;;;36.55;21.08;;;;;;;10.66;100.00;100295.66;5205402;28;20021;-69
2022/04/23 02:12:18;;;;;;;39.40;21.23;;;;;;;10.61;100.00;100285.47;5205304;28;20017;-70
2022/04/23 02:14:49;;;;;;;35.05;21.70;;;;;;;10.62;100.00;100284.44;5205222;28;20028;-70
2022/04/23 02:17:19;;;;;;;36.42;21.25;;;;;;;10.59;100.00;100292.88;5205561;28;20549;-70
2022/04/23 02:19:50;;;;;;;40.58;21.17;;;;;;;10.57;100.00;100286.00;5205443;28;20099;-70
2022/04/23 02:22:20;;;;;;;35.67;21.98;;;;;;;10.57;100.00;100292.22;5205339;28;20072;-70
2022/04/23 02:24:51;;;;;;;37.95;20.55;;;;;;;10.57;100.00;100296.75;5204857;28;20088;-69
2022/04/23 02:27:21;;;;;;;36.80;21.10;;;;;;;10.57;100.00;100289.53;5205472;28;20427;-70
2022/04/23 02:29:53;;;;;;;33.55;20.92;;;;;;;10.55;100.00;100288.06;5205089;28;20493;-70
2022/04/23 02:32:23;;;;;;;37.53;20.38;;;;;;;10.55;100.00;100294.25;5205498;28;20105;-70
2022/04/23 02:34:54;;;;;;;40.55;22.58;;;;;;;10.58;100.00;100287.66;5203773;28;20111;-70
2022/04/23 02:37:27;;;;;;;36.58;20.50;;;;;;;10.56;100.00;100292.41;5203013;28;20118;-70
2022/04/23 02:39:58;;;;;;;34.00;21.42;;;;;;;10.54;100.00;100299.78;5201522;28;20029;-70
2022/04/23 02:42:29;;;;;;;34.65;21.13;;;;;;;10.50;100.00;100301.16;5205137;28;20082;-70
2022/04/23 02:45:02;;;;;;;42.63;21.63;;;;;;;10.47;100.00;100294.28;5204596;28;20476;-70
2022/04/23 02:47:48;;;;;;;37.92;21.23;;;;;;;10.43;100.00;100295.66;5205249;28;20310;-70
2022/04/23 02:50:37;;;;;;;;;;;;;;;10.41;100.00;100292.34;5194153;28;20036;-70
2022/04/23 02:53:08;;;;;;;36.60;20.73;;;;;;;10.41;100.00;100292.34;5204698;28;19916;-70
2022/04/23 02:55:39;;;;;;;39.10;22.35;;;;;;;10.41;100.00;100288.81;5204604;28;20021;-70
2022/04/23 02:58:10;;;;;;;35.80;22.10;;;;;;;10.36;100.00;100286.69;5204548;28;20363;-70
2022/04/23 03:00:42;;;;;;;44.92;21.83;;;;;;;10.33;100.00;100281.66;5204546;28;20091;-70
2022/04/23 03:03:12;;;;;;;38.38;22.25;;;;;;;10.33;100.00;100285.16;5204720;28;20032;-70
2022/04/23 03:05:43;;;;;;;37.13;22.25;;;;;;;10.31;100.00;100281.00;5204157;28;20379;-70
2022/04/23 03:08:14;;;;;;;39.53;22.27;;;;;;;10.29;100.00;100277.66;5204671;28;20057;-70
2022/04/23 03:10:45;;;;;;;41.38;22.13;;;;;;;10.28;100.00;100281.34;5202218;28;20446;-71
2022/04/23 03:13:15;;;;;;;35.70;21.95;;;;;;;10.29;100.00;100280.34;5194832;28;20061;-71
2022/04/23 03:15:46;;;;;;;37.95;22.90;;;;;;;10.28;100.00;100284.03;5204443;28;20471;-70
2022/04/23 03:18:17;;;;;;;37.92;21.67;;;;;;;10.28;100.00;100281.34;5204602;28;20136;-70
2022/04/23 03:20:47;;;;;;;36.13;22.08;;;;;;;10.26;100.00;100276.19;5203963;28;20018;-70
2022/04/23 03:23:17;;;;;;;38.75;21.90;;;;;;;10.25;100.00;100273.69;5204329;28;20060;-71
2022/04/23 03:25:48;;;;;;;40.40;21.50;;;;;;;10.25;100.00;100276.38;5189465;28;20042;-70
2022/04/23 03:28:20;;;;;;;40.28;23.15;;;;;;;10.24;100.00;100278.22;5204324;28;20025;-69
2022/04/23 03:30:50;;;;;;;35.92;20.65;;;;;;;10.23;100.00;100278.34;5204309;28;20379;-69
2022/04/23 03:33:21;;;;;;;37.92;21.67;;;;;;;10.24;100.00;100266.63;5204553;28;20040;-69
2022/04/23 03:35:51;;;;;;;38.05;21.77;;;;;;;10.19;100.00;100272.53;5203662;28;20017;-69
2022/04/23 03:38:22;;;;;;;39.53;21.90;;;;;;;10.20;100.00;100271.50;5203906;28;20049;-69
2022/04/23 03:40:54;;;;;;;37.63;22.33;;;;;;;10.18;100.00;100264.63;5203868;28;20602;-70
2022/04/23 03:43:25;;;;;;;37.13;22.05;;;;;;;10.15;100.00;100263.16;5204106;28;20029;-69
2022/04/23 03:45:56;;;;;;;38.13;22.17;;;;;;;10.11;100.00;100260.00;5203949;28;20386;-69
2022/04/23 03:48:26;;;;;;;39.35;21.83;;;;;;;10.07;100.00;100257.84;5203927;28;20033;-70
2022/04/23 03:50:56;;;;;;;41.22;21.65;;;;;;;10.03;100.00;100256.53;5202979;28;20538;-70
2022/04/23 03:53:27;;;;;;;40.22;22.02;;;;;;;10.01;100.00;100254.03;5204349;28;20440;-69
2022/04/23 03:55:57;;;;;;;42.10;24.08;;;;;;;10.01;100.00;100261.25;5203732;28;20388;-70
2022/04/23 03:58:28;;;;;;;40.22;23.52;;;;;;;9.98;100.00;100258.91;5203958;28;20026;-70
2022/04/23 04:01:00;;;;;;;40.38;22.42;;;;;;;9.96;100.00;100251.03;5203675;28;20548;-70
2022/04/23 04:03:30;;;;;;;40.13;23.90;;;;;;;9.93;100.00;100258.59;5203856;28;20049;-70
2022/04/23 04:06:01;;;;;;;39.85;22.27;;;;;;;9.90;100.00;100251.75;5203231;28;20109;-70
2022/04/23 04:08:31;;;;;;;46.72;22.50;;;;;;;9.85;100.00;100251.47;5203365;28;20022;-70
2022/04/23 04:11:02;;;;;;;40.30;24.63;;;;;;;9.85;100.00;100249.59;5201864;28;20025;-71
2022/04/23 04:13:33;;;;;;;40.60;22.80;;;;;;;9.83;100.00;100250.78;5193423;28;20045;-70
2022/04/23 04:16:03;;;;;;;46.55;24.08;;;;;;;9.81;100.00;100252.81;5203471;28;20021;-70
2022/04/23 04:18:34;;;;;;;44.80;24.13;;;;;;;9.74;100.00;100252.69;5203545;28;20025;-70
2022/04/23 04:21:05;;;;;;;41.08;24.00;;;;;;;9.70;100.00;100254.03;5203459;28;20105;-70
2022/04/23 04:23:35;;;;;;;40.53;23.25;;;;;;;9.66;100.00;100252.72;5202366;28;20025;-70
2022/04/23 04:26:07;;;;;;;39.13;23.40;;;;;;;9.59;100.00;100255.28;5203379;28;20021;-70
2022/04/23 04:28:37;;;;;;;43.67;23.77;;;;;;;9.58;100.00;100255.41;5203842;28;20040;-70
2022/04/23 04:33:57;;;;;;;41.53;24.35;;;;;;;9.53;100.00;100258.63;5203335;28;20079;-71
2022/04/23 04:36:27;;;;;;;41.95;24.10;;;;;;;9.50;100.00;100255.47;5203091;28;20025;-70
2022/04/23 04:38:57;;;;;;;39.65;24.50;;;;;;;9.49;100.00;100260.00;5197634;28;20489;-70
2022/04/23 04:41:29;;;;;;;45.97;24.45;;;;;;;9.49;100.00;100257.31;5203444;28;21930;-69
2022/04/23 04:44:00;;;;;;;43.80;23.02;;;;;;;9.45;100.00;100258.66;5202304;28;20395;-70
2022/04/23 04:46:31;;;;;;;42.88;25.02;;;;;;;9.45;100.00;100258.66;5203118;28;20064;-70
2022/04/23 04:49:03;;;;;;;43.83;25.75;;;;;;;9.42;100.00;100261.69;5203192;28;20083;-69
2022/04/23 04:51:36;;;;;;;43.38;24.73;;;;;;;9.41;100.00;100256.50;5203337;28;20438;-69
2022/04/23 04:54:06;;;;;;;42.22;25.20;;;;;;;9.40;100.00;100258.34;5203356;28;20029;-70
2022/04/23 04:56:37;;;;;;;45.00;25.88;;;;;;;9.39;100.00;100256.69;5203230;28;20032;-70
2022/04/23 04:59:07;;;;;;;47.97;25.48;;;;;;;9.40;100.00;100262.88;5201674;28;20076;-70
2022/04/23 05:01:38;;;;;;;42.88;23.75;;;;;;;9.36;100.00;100262.38;5189797;28;20337;-70
2022/04/23 05:04:09;;;;;;;47.50;25.73;;;;;;;9.36;100.00;100258.88;5200154;28;20040;-70
2022/04/23 05:06:40;;;;;;;46.47;25.27;;;;;;;9.36;100.00;100267.72;5204982;28;20437;-69
2022/04/23 05:09:10;;;;;;;46.13;26.33;;;;;;;9.34;100.00;100265.22;5202168;28;20048;-69
2022/04/23 05:11:41;;;;;;;45.33;24.88;;;;;;;9.29;100.00;100264.91;5203765;28;20494;-70
2022/04/23 05:14:12;;;;;;;43.60;24.98;;;;;;;9.31;100.00;100264.72;5194850;28;20068;-70
2022/04/23 05:16:43;;;;;;;41.67;24.85;;;;;;;9.27;100.00;100266.91;5204461;28;20069;-70
2022/04/23 05:19:14;;;;;;;46.10;25.98;;;;;;;9.28;100.00;100262.38;5203871;28;20438;-70
2022/04/23 05:21:45;;;;;;;42.55;24.75;;;;;;;9.27;100.00;100264.22;5203665;28;20053;-70
2022/04/23 05:24:15;;;;;;;48.35;25.30;;;;;;;9.27;100.00;100272.25;5203523;28;20033;-70
2022/04/23 05:26:46;;;;;;;43.92;25.23;;;;;;;9.29;100.00;100270.28;5203977;28;20036;-70
2022/04/23 05:29:16;;;;;;;43.75;24.27;;;;;;;9.34;100.00;100272.44;5204145;28;20108;-70
2022/04/23 05:31:47;;;;;;;42.63;24.17;;;;;;;9.39;100.00;100267.41;5203463;28;20017;-71
2022/04/23 05:34:17;;;;;;;46.88;25.15;;;;;;;9.41;100.00;100276.06;5203640;28;20029;-70
2022/04/23 05:36:48;;;;;;;41.72;23.45;;;;;;;9.46;100.00;100264.84;5203884;28;20044;-70
2022/04/23 05:39:18;;;;;;;43.35;24.08;;;;;;;9.47;100.00;100272.72;5197931;28;20026;-70
2022/04/23 05:41:49;;;;;;;49.40;26.95;;;;;;;9.49;100.00;100273.38;5203518;28;20105;-71
2022/04/23 05:44:19;;;;;;;41.95;23.42;;;;;;;9.57;100.00;100276.00;5203698;28;20047;-70
2022/04/23 05:46:50;;;;;;;45.03;24.40;;;;;;;9.66;100.00;100270.63;5204133;28;20179;-70
2022/04/23 05:49:20;;;;;;;38.38;22.88;;;;;;;9.77;100.00;100268.38;5203144;28;20032;-70
2022/04/23 05:51:50;;;;;;;43.33;23.25;;;;;;;10.16;100.00;100269.34;5203458;28;20033;-70
2022/04/23 05:54:21;;;;;;;41.08;22.45;;;;;;;10.48;100.00;100269.13;5203604;28;20027;-70
2022/04/23 05:56:52;;;;;;;38.88;22.15;;;;;;;10.87;100.00;100265.47;5204052;28;20383;-70
2022/04/23 05:59:25;;;;;;;38.60;22.05;;;;;;;11.11;100.00;100273.28;5203667;28;20126;-70
2022/04/23 06:01:56;;;;;;;33.33;20.77;;;;;;;11.48;100.00;100274.19;5202862;28;20116;-70
2022/04/23 06:04:27;;;;;;;35.63;21.10;;;;;;;11.71;100.00;100267.91;5203036;28;20094;-70
2022/04/23 06:06:57;;;;;;;35.45;21.35;;;;;;;11.81;100.00;100265.75;5203663;28;20028;-70
2022/04/23 06:09:28;;;;;;;36.30;20.33;;;;;;;11.85;100.00;100275.13;5202952;28;20399;-70
2022/04/23 06:11:58;;;;;;;33.67;19.90;;;;;;;11.90;100.00;100273.53;5202400;28;20029;-70
2022/04/23 06:14:29;;;;;;;32.55;19.60;;;;;;;11.67;100.00;100278.19;5202130;28;20463;-70
2022/04/23 06:16:59;;;;;;;35.25;20.98;;;;;;;11.46;100.00;100276.25;5203395;28;20490;-70
2022/04/23 06:19:31;;;;;;;37.60;21.88;;;;;;;11.75;100.00;100271.88;5203142;28;20025;-70
2022/04/23 06:22:01;;;;;;;31.17;18.58;;;;;;;12.16;100.00;100269.50;5202950;28;20025;-70
2022/04/23 06:24:33;;;;;;;28.95;18.70;;;;;;;12.60;100.00;100261.22;5202961;28;20029;-70
2022/04/23 06:27:04;;;;;;;32.58;19.70;;;;;;;12.90;100.00;100264.59;5203399;28;20025;-70
2022/04/23 06:29:36;;;;;;;33.28;19.17;;;;;;;13.03;100.00;100263.84;5203140;28;20032;-70
2022/04/23 06:32:08;;;;;;;32.08;18.70;;;;;;;13.36;100.00;100264.09;5202344;28;20033;-70
2022/04/23 06:34:39;;;;;;;29.38;19.10;;;;;;;13.51;100.00;100261.28;5203001;28;20075;-70
2022/04/23 06:37:10;;;;;;;29.58;20.13;;;;;;;13.62;100.00;100260.69;5204943;28;20124;-71
2022/04/23 06:39:40;;;;;;;30.15;19.33;;;;;;;13.73;100.00;100260.13;5201362;28;20025;-70
2022/04/23 06:42:11;;;;;;;29.27;18.65;;;;;;;14.10;100.00;100259.81;5200766;28;20040;-70
2022/04/23 06:44:41;;;;;;;31.60;19.05;;;;;;;13.93;100.00;100257.50;5203207;28;20048;-70
2022/04/23 06:47:14;;;;;;;33.67;19.88;;;;;;;13.97;100.00;100257.94;5211860;28;20103;-70
2022/04/23 06:49:44;;;;;;;29.55;19.15;;;;;;;14.23;100.00;100247.22;5210291;28;20029;-70
2022/04/23 06:52:15;;;;;;;30.45;18.95;;;;;;;14.40;100.00;100253.03;5203717;28;20029;-71
2022/04/23 06:54:45;;;;;;;31.70;18.48;;;;;;;14.69;100.00;100242.91;5202838;28;20386;-71
2022/04/23 06:57:17;;;;;;;27.33;18.00;;;;;;;14.89;100.00;100237.50;5213140;28;20063;-71
2022/04/23 06:59:48;;;;;;;28.70;18.95;;;;;;;14.86;100.00;100227.13;5213361;28;20533;-71
2022/04/23 07:02:19;;;;;;;29.73;18.50;;;;;;;14.99;100.00;100237.91;5215100;28;20077;-71
2022/04/23 07:04:50;;;;;;;26.13;17.80;;;;;;;15.22;100.00;100232.91;5199725;28;20505;-71
2022/04/23 07:07:20;;;;;;;27.23;18.20;;;;;;;15.25;100.00;100243.25;5214126;28;20025;-71
2022/04/23 07:09:50;;;;;;;29.33;18.70;;;;;;;15.51;100.00;100244.22;5210361;28;20086;-71
2022/04/23 07:12:21;;;;;;;28.63;18.38;;;;;;;15.21;100.00;100239.34;5202021;28;20017;-71
2022/04/23 07:14:51;;;;;;;28.10;18.25;;;;;;;15.11;100.00;100238.09;5201082;28;20021;-71
2022/04/23 07:17:24;;;;;;;28.95;18.58;;;;;;;15.17;100.00;100240.81;5200729;28;20117;-71
2022/04/23 07:19:55;;;;;;;28.58;18.90;;;;;;;15.56;100.00;100244.41;5212020;28;20033;-71
2022/04/23 07:22:25;;;;;;;27.02;18.35;;;;;;;15.94;100.00;100247.22;5196052;28;20789;-71
2022/04/23 07:24:55;;;;;;;29.08;18.42;;;;;;;16.04;100.00;100242.16;5201975;28;20057;-70
2022/04/23 07:27:27;;;;;;;28.25;17.20;;;;;;;15.90;100.00;100237.88;5199755;28;20053;-71
2022/04/23 07:29:58;;;;;;;27.45;17.63;;;;;;;16.10;100.00;100248.59;5210120;28;20025;-71
2022/04/23 07:32:28;;;;;;;25.00;16.45;;;;;;;16.16;100.00;100233.34;5199988;28;20032;-71
2022/04/23 07:37:48;;;;;;;25.92;17.58;;;;;;;16.07;100.00;100240.09;5209697;28;20032;-71
2022/04/23 07:40:19;;;;;;;23.35;16.45;;;;;;;16.07;100.00;100249.03;5210527;28;20057;-71
2022/04/23 07:42:49;;;;;;;28.02;16.77;;;;;;;16.38;100.00;100244.69;5213395;28;20457;-71
2022/04/23 07:45:19;;;;;;;27.55;17.65;;;;;;;16.63;100.00;100237.41;5202070;28;20061;-71
2022/04/23 07:47:50;;;;;;;28.42;18.10;;;;;;;16.24;100.00;100238.50;5208477;28;20049;-71
2022/04/23 07:50:20;;;;;;;24.38;16.75;;;;;;;16.07;100.00;100230.09;5214148;28;20775;-71
2022/04/23 07:52:51;;;;;;;28.50;17.20;;;;;;;16.36;100.00;100217.81;5209935;28;20501;-71
2022/04/23 07:55:21;;;;;;;25.73;17.45;;;;;;;16.62;100.00;100224.91;5211839;28;20036;-71
2022/04/23 07:57:52;;;;;;;32.75;17.88;;;;;;;16.76;100.00;100222.94;5207964;28;20018;-71
2022/04/23 08:00:22;;;;;;;24.02;17.13;;;;;;;17.06;100.00;100223.91;5203397;28;20079;-71
2022/04/23 08:02:53;;;;;;;28.10;17.50;;;;;;;16.96;100.00;100222.75;5205844;28;20613;-71
2022/04/23 08:05:24;;;;;;;24.88;17.08;;;;;;;17.16;100.00;100223.38;5214046;28;20025;-71
2022/04/23 08:07:54;;;;;;;22.80;16.50;;;;;;;17.16;100.00;100220.66;5206242;28;20025;-71
2022/04/23 08:10:25;;;;;;;25.00;16.02;;;;;;;17.35;100.00;100218.81;5204641;28;20026;-71
2022/04/23 08:12:56;;;;;;;25.13;16.45;;;;;;;17.71;100.00;100217.13;5205682;28;20053;-71
2022/04/23 08:15:26;;;;;;;25.40;16.35;;;;;;;17.92;100.00;100210.41;5201164;28;20033;-71
2022/04/23 08:17:57;;;;;;;27.00;16.88;;;;;;;17.68;100.00;100207.56;5201973;28;20025;-71
2022/04/23 08:20:30;;;;;;;26.90;16.92;;;;;;;17.46;100.00;100212.63;5210611;28;20052;-71
2022/04/23 08:23:02;;;;;;;23.55;17.23;;;;;;;17.39;100.00;100201.03;5203565;28;20136;-71
2022/04/23 08:25:33;;;;;;;26.83;16.55;;;;;;;17.68;100.00;100204.03;5204495;28;20023;-71
2022/04/23 08:30:52;;;;;;;25.42;16.27;;;;;;;18.09;100.00;100190.53;5204196;28;20029;-71
2022/04/23 08:33:23;;;;;;;24.25;16.80;;;;;;;18.35;100.00;100199.34;5200477;28;20086;-71
2022/04/23 08:35:53;;;;;;;22.73;15.68;;;;;;;18.51;100.00;100195.09;5204253;28;20033;-71
2022/04/23 08:38:24;;;;;;;23.33;15.85;;;;;;;18.49;100.00;100203.50;5206401;28;20021;-71
2022/04/23 08:40:54;;;;;;;23.17;16.00;;;;;;;18.30;100.00;100215.50;5215388;28;20120;-71
2022/04/23 08:43:25;;;;;;;25.55;17.10;;;;;;;18.08;100.00;100205.19;5212500;28;20433;-71
2022/04/23 08:45:55;;;;;;;25.38;15.25;;;;;;;17.98;100.00;100204.09;5208912;28;20111;-71
2022/04/23 08:48:32;;;;;;;28.25;16.52;;;;;;;18.08;100.00;100209.78;5207228;28;20029;-71
2022/04/23 08:51:05;;;;;;;25.55;16.17;;;;;;;18.00;100.00;100201.94;5202590;28;20013;-71
2022/04/23 08:53:40;;;;;;;24.75;16.15;;;;;;;18.23;100.00;100204.75;5213326;28;20036;-71
2022/04/23 08:56:11;;;;;;;21.33;14.85;;;;;;;18.80;100.00;100207.81;5208781;28;20052;-71
2022/04/23 08:58:41;;;;;;;24.23;16.38;;;;;;;18.48;100.00;100206.47;5205927;28;20029;-71
2022/04/23 09:01:12;;;;;;;26.70;15.80;;;;;;;18.46;100.00;100208.56;5209515;28;20032;-71
2022/04/23 09:03:42;;;;;;;23.08;15.63;;;;;;;17.99;100.00;100209.28;5198858;28;20033;-71
2022/04/23 09:06:13;;;;;;;24.33;15.55;;;;;;;17.98;100.00;100204.09;5208727;28;20033;-71
2022/04/23 09:09:05;;;;;;;27.05;15.63;;;;;;;18.22;100.00;100205.78;5206254;28;20053;-71
2022/04/23 09:11:36;;;;;;;24.00;15.32;;;;;;;18.07;100.00;100205.38;5212026;28;20021;-71
2022/04/23 09:14:08;;;;;;;23.45;14.90;;;;;;;18.35;100.00;100204.78;5201793;28;20386;-72
2022/04/23 09:25:35;;;;;;;24.13;15.10;;;;;;;19.42;99.04;100213.53;5208226;28;20021;-71
2022/04/23 09:28:24;;;;;;;25.40;14.82;;;;;;;19.19;98.13;100213.59;5201689;28;20033;-71
2022/04/23 09:30:56;;;;;;;25.67;14.73;;;;;;;18.93;97.93;100211.38;5204582;28;20025;-71
2022/04/23 09:33:43;;;;;;;26.55;15.43;;;;;;;19.11;100.00;100203.91;5205445;28;20025;-71
2022/04/23 09:36:13;;;;;;;24.00;14.73;;;;;;;18.81;97.15;100208.63;5203686;28;20025;-71
2022/04/23 09:38:58;;;;;;;23.67;15.63;;;;;;;18.69;98.67;100205.91;5201450;28;20032;-71
2022/04/23 09:41:47;;;;;;;22.92;15.45;;;;;;;18.61;100.00;100198.91;5206589;28;20565;-72
2022/04/23 09:44:17;;;;;;;22.33;14.63;;;;;;;18.69;100.00;100199.66;5212572;28;20075;-71
2022/04/23 09:46:48;;;;;;;23.38;15.38;;;;;;;19.01;98.68;100194.69;5208713;28;20119;-71
2022/04/23 09:49:21;;;;;;;22.13;14.43;;;;;;;19.22;100.00;100199.50;5201972;28;20178;-71
2022/04/23 09:52:11;;;;;;;23.63;15.40;;;;;;;19.10;98.87;100204.16;5201088;28;20013;-72
2022/04/23 09:54:43;;;;;;;27.58;15.57;;;;;;;19.11;99.98;100194.91;5201142;28;20067;-72
2022/04/23 09:57:13;;;;;;;30.33;15.27;;;;;;;18.95;97.81;100185.59;5204323;28;20108;-72
2022/04/23 09:59:44;;;;;;;29.90;15.43;;;;;;;18.73;100.00;100198.97;5207475;28;20539;-71
2022/04/23 10:02:19;;;;;;;23.63;14.65;;;;;;;18.86;100.00;100195.16;5204151;28;20039;-71
2022/04/23 10:04:56;;;;;;;22.75;14.45;;;;;;;19.42;100.00;100190.94;5207401;28;20055;-72
2022/04/23 10:07:29;;;;;;;22.58;14.25;;;;;;;19.54;97.99;100189.03;5207417;28;20021;-72
2022/04/23 10:10:03;;;;;;;19.80;14.32;;;;;;;19.79;97.69;100188.75;5201093;28;20025;-72
2022/04/23 10:12:37;;;;;;;18.98;13.60;;;;;;;20.04;97.96;100195.75;5208321;28;20028;-72
2022/04/23 10:15:08;;;;;;;20.63;13.57;;;;;;;19.94;94.56;100198.28;5211343;28;20029;-72
2022/04/23 10:17:41;;;;;;;20.65;14.45;;;;;;;19.58;93.11;100192.94;5213529;28;20049;-71
2022/04/23 10:20:12;;;;;;;20.58;12.95;;;;;;;19.28;98.32;100192.31;5212502;28;20021;-72
2022/04/23 10:22:59;;;;;;;23.70;13.70;;;;;;;18.75;99.82;100175.09;5217909;28;20544;-71
2022/04/23 10:25:50;;;;;;;24.00;14.25;;;;;;;18.25;100.00;100182.78;5203752;28;20180;-72
2022/04/23 10:28:21;;;;;;;22.58;13.75;;;;;;;18.38;100.00;100188.03;5199760;28;20053;-71
2022/04/23 10:31:12;;;;;;;23.42;13.65;;;;;;;18.11;100.00;100182.16;5202325;28;20087;-71
2022/04/23 10:33:46;;;;;;;22.17;13.95;;;;;;;17.88;100.00;100185.63;5209480;28;20036;-72
2022/04/23 10:36:16;;;;;;;20.40;13.13;;;;;;;17.71;100.00;100182.69;5208660;28;20052;-72
2022/04/23 10:41:38;;;;;;;24.92;14.07;;;;;;;17.68;100.00;100185.88;5200804;28;20288;-72
2022/04/23 10:44:09;;;;;;;23.30;13.70;;;;;;;17.82;100.00;100173.81;5200592;28;20036;-71
2022/04/23 10:46:40;;;;;;;19.35;12.73;;;;;;;17.87;100.00;100181.25;5201278;28;20099;-71
2022/04/23 10:49:26;;;;;;;23.25;13.30;;;;;;;17.92;100.00;100173.25;5209455;28;20490;-72
2022/04/23 10:51:58;;;;;;;22.45;13.75;;;;;;;18.28;100.00;100183.16;5201916;28;20037;-71
2022/04/23 10:54:40;;;;;;;20.25;13.18;;;;;;;18.45;100.00;100174.31;5204109;28;20108;-71
2022/04/23 10:57:13;;;;;;;20.70;13.55;;;;;;;18.60;100.00;100174.69;5200847;28;20457;-72
2022/04/23 10:59:45;;;;;;;20.38;13.60;;;;;;;18.62;100.00;100172.56;5200093;28;20028;-71
2022/04/23 11:02:32;;;;;;;21.15;12.93;;;;;;;18.59;100.00;100170.31;5208294;28;20031;-71
2022/04/23 11:14:44;;;;;;;16.83;12.35;;;;;;;19.34;98.98;100172.31;5199583;28;20322;-73
2022/04/23 11:17:20;;;;;;;17.02;12.00;;;;;;;19.51;100.00;100172.38;5200066;28;20107;-72
2022/04/23 11:19:52;;;;;;;15.88;11.00;;;;;;;19.37;99.22;100169.09;5205899;28;20579;-73
2022/04/23 11:22:23;;;;;;;18.30;11.55;;;;;;;19.30;100.00;100163.78;5209468;28;20025;-73
2022/04/23 11:24:55;;;;;;;19.50;10.90;;;;;;;19.33;98.90;100148.91;5198768;28;20029;-72
2022/04/23 11:27:28;;;;;;;19.92;11.45;;;;;;;19.44;100.00;100148.03;5211828;28;20262;-72
2022/04/23 11:29:59;;;;;;;20.10;12.13;;;;;;;19.47;96.00;100146.72;5200150;28;20061;-72
2022/04/23 11:32:32;;;;;;;18.88;10.50;;;;;;;19.65;97.90;100146.56;5200980;28;20048;-73
2022/04/23 11:35:05;;;;;;;17.27;10.10;;;;;;;19.81;98.71;100161.28;5203967;28;20112;-73
2022/04/23 11:37:38;;;;;;;16.98;10.25;;;;;;;19.80;98.49;100155.03;5208876;28;20029;-72
2022/04/23 11:40:11;;;;;;;13.70;9.50;;;;;;;19.76;94.95;100151.13;5200326;28;20115;-73
2022/04/23 11:42:58;;;;;;;15.48;9.63;;;;;;;19.72;99.23;100146.41;5200874;28;20037;-72
2022/04/23 11:45:29;;;;;;;14.23;10.07;;;;;;;19.67;98.29;100139.81;5204762;28;20100;-72
2022/04/23 11:48:10;;;;;;;17.52;9.60;;;;;;;19.53;93.99;100148.47;5199742;28;20144;-73
2022/04/23 11:50:41;;;;;;;14.63;10.73;;;;;;;19.30;95.82;100147.47;5204407;28;20475;-72
2022/04/23 11:53:11;;;;;;;18.50;9.90;;;;;;;19.55;98.47;100143.63;5199371;28;20040;-72
2022/04/23 11:55:41;;;;;;;15.52;10.48;;;;;;;19.71;93.68;100142.03;5202927;28;20108;-72